Time;durP1;ratioP1;P1;durP2;ratioP2;P2;SDS_P1;SDS_P2;PMS_P1;PMS_P2;Temp;Humidity;BMP_temperature;BMP_pressure;BME280_temperature;BME280_humidity;BME280_pressure;Samples;Min_cycle;Max_cycle;Signal;HPM_P1;HPM_P2
2022/09/16 00:01:10;;;;;;;5.43;1.75;;;15.80;99.90;;;;;;4993860;28;20030;-48
2022/09/16 00:03:36;;;;;;;9.40;2.10;;;15.80;99.90;;;;;;4993535;28;20061;-47
2022/09/16 00:06:01;;;;;;;5.82;1.80;;;15.80;99.90;;;;;;4993750;28;20049;-45
2022/09/16 00:08:27;;;;;;;4.35;1.95;;;15.80;99.90;;;;;;4993677;28;20023;-49
2022/09/16 00:10:52;;;;;;;7.60;1.92;;;15.80;99.90;;;;;;4993394;28;20394;-47
2022/09/16 00:13:18;;;;;;;7.40;1.58;;;15.80;99.90;;;;;;4993261;28;20027;-46
2022/09/16 00:15:49;;;;;;;9.05;1.90;;;15.80;99.90;;;;;;4993629;28;20022;-47
2022/09/16 00:18:15;;;;;;;6.53;2.33;;;15.80;99.90;;;;;;4993516;28;20037;-48
2022/09/16 00:20:49;;;;;;;5.22;1.77;;;15.80;99.90;;;;;;4993506;28;20101;-46
2022/09/16 00:23:15;;;;;;;3.97;1.67;;;15.90;99.90;;;;;;4993002;28;20022;-46
2022/09/16 00:25:41;;;;;;;5.22;1.92;;;15.90;99.90;;;;;;4993154;28;20334;-46
2022/09/16 00:28:06;;;;;;;2.17;1.27;;;15.80;99.90;;;;;;5006458;28;20033;-45
2022/09/16 00:30:32;;;;;;;3.40;2.45;;;15.70;99.90;;;;;;5012735;28;20076;-46
2022/09/16 00:32:58;;;;;;;6.18;2.42;;;15.80;99.90;;;;;;5012128;28;20508;-48
2022/09/16 00:35:23;;;;;;;3.33;1.50;;;15.70;99.90;;;;;;5012645;28;20498;-46
2022/09/16 00:37:49;;;;;;;6.97;2.40;;;15.70;99.90;;;;;;5012021;28;20026;-47
2022/09/16 00:40:15;;;;;;;3.50;1.40;;;15.70;99.90;;;;;;5012591;28;20160;-45
2022/09/16 00:42:40;;;;;;;4.32;1.70;;;15.70;99.90;;;;;;5012350;28;20152;-47
2022/09/16 00:45:14;;;;;;;4.80;1.63;;;15.70;99.90;;;;;;5012477;28;20026;-45
2022/09/16 00:47:48;;;;;;;4.22;2.13;;;15.70;99.90;;;;;;5012640;28;20502;-46
2022/09/16 00:50:32;;;;;;;4.22;1.90;;;15.80;99.90;;;;;;5012461;28;20024;-50
2022/09/16 00:52:59;;;;;;;2.72;1.33;;;15.80;99.90;;;;;;5012185;28;20109;-47
2022/09/16 00:55:29;;;;;;;6.35;1.73;;;15.70;99.90;;;;;;5012300;28;20551;-46
2022/09/16 00:58:00;;;;;;;6.80;1.52;;;15.70;99.90;;;;;;5012452;28;20033;-50
2022/09/16 01:00:25;;;;;;;6.70;1.45;;;15.70;99.90;;;;;;5012329;28;20033;-46
2022/09/16 01:02:51;;;;;;;2.55;1.33;;;15.60;99.90;;;;;;4993654;28;20022;-47
2022/09/16 01:05:20;;;;;;;6.72;2.83;;;15.60;99.90;;;;;;5012210;28;20536;-46
2022/09/16 01:07:48;;;;;;;5.82;1.50;;;15.70;99.90;;;;;;5012214;28;20030;-47
2022/09/16 01:10:18;;;;;;;6.10;2.28;;;15.70;99.90;;;;;;5011866;28;20470;-46
2022/09/16 01:12:48;;;;;;;5.43;1.70;;;15.60;99.90;;;;;;5011860;28;20022;-47
2022/09/16 01:15:15;;;;;;;2.47;1.40;;;15.50;99.90;;;;;;5012328;28;20022;-46
2022/09/16 01:18:03;;;;;;;3.08;1.02;;;15.50;99.90;;;;;;5012121;28;20022;-44
2022/09/16 01:20:46;;;;;;;2.60;1.27;;;15.50;99.90;;;;;;5012018;28;20096;-46
2022/09/16 01:23:23;;;;;;;3.45;1.60;;;15.50;99.90;;;;;;5011686;28;20489;-50
2022/09/16 01:26:19;;;;;;;8.77;1.48;;;15.60;99.90;;;;;;5012185;28;20390;-47
2022/09/16 01:29:05;;;;;;;;;;;15.50;99.90;;;;;;5012410;28;20025;-48
2022/09/16 01:31:51;;;;;;;3.40;1.45;;;15.50;99.90;;;;;;5011295;28;19925;-46
2022/09/16 01:34:17;;;;;;;2.30;1.42;;;15.50;99.90;;;;;;5011767;28;20105;-46
2022/09/16 01:37:13;;;;;;;4.35;1.13;;;15.60;99.90;;;;;;5011758;28;20108;-46
2022/09/16 01:40:10;;;;;;;5.40;1.40;;;15.50;99.90;;;;;;5010462;28;20118;-46
2022/09/16 01:42:51;;;;;;;3.80;1.42;;;15.40;99.90;;;;;;5011492;28;20077;-45
2022/09/16 01:45:45;;;;;;;4.32;1.10;;;15.40;99.90;;;;;;5011537;28;20017;-47
2022/09/16 01:48:46;;;;;;;7.20;1.60;;;15.40;99.90;;;;;;5011877;28;20018;-49
2022/09/16 01:51:33;;;;;;;5.20;1.40;;;15.40;99.90;;;;;;5011581;28;20026;-46
2022/09/16 01:54:12;;;;;;;5.57;2.03;;;15.50;99.90;;;;;;5010120;28;20532;-47
2022/09/16 01:56:57;;;;;;;1.70;1.20;;;15.40;99.90;;;;;;5010235;28;20083;-51
2022/09/16 01:59:36;;;;;;;2.05;1.30;;;15.40;99.90;;;;;;5011882;28;20018;-46
2022/09/16 02:02:16;;;;;;;6.88;1.42;;;15.40;99.90;;;;;;5011223;28;20088;-46
2022/09/16 02:04:47;;;;;;;4.28;1.88;;;15.40;99.90;;;;;;5011687;28;20402;-44
2022/09/16 02:07:15;;;;;;;3.00;1.60;;;15.40;99.90;;;;;;5011495;28;20081;-47
2022/09/16 02:09:47;;;;;;;5.38;1.63;;;15.40;99.90;;;;;;5011341;28;20026;-46
2022/09/16 02:12:20;;;;;;;5.00;1.10;;;15.40;99.90;;;;;;5011121;28;20021;-46
2022/09/16 02:14:48;;;;;;;6.47;1.20;;;15.30;99.90;;;;;;5013007;28;20165;-46
2022/09/16 02:17:18;;;;;;;4.72;2.05;;;15.30;99.90;;;;;;5015217;28;20057;-46
2022/09/16 02:19:59;;;;;;;6.00;1.30;;;15.30;99.90;;;;;;5015212;28;20079;-45
2022/09/16 02:22:35;;;;;;;2.63;1.17;;;15.30;99.90;;;;;;5015085;28;20374;-45
2022/09/16 02:25:04;;;;;;;7.10;2.08;;;15.20;99.90;;;;;;5015027;28;20030;-46
2022/09/16 02:27:30;;;;;;;4.75;1.55;;;15.20;99.90;;;;;;5015218;28;20500;-45
2022/09/16 02:30:04;;;;;;;6.88;2.00;;;15.30;99.90;;;;;;5015112;28;20030;-44
2022/09/16 02:32:32;;;;;;;3.00;1.20;;;15.30;99.90;;;;;;5014893;28;20072;-45
2022/09/16 02:35:00;;;;;;;4.25;1.50;;;15.30;99.90;;;;;;5014926;28;20022;-45
2022/09/16 02:37:31;;;;;;;2.97;1.35;;;15.20;99.90;;;;;;5014617;28;20440;-47
2022/09/16 02:40:03;;;;;;;6.63;1.73;;;15.20;99.90;;;;;;5014872;28;20389;-48
2022/09/16 02:42:29;;;;;;;4.18;1.17;;;15.20;99.90;;;;;;5014610;28;20108;-49
2022/09/16 02:44:56;;;;;;;2.45;1.30;;;15.20;99.90;;;;;;5014806;28;20025;-46
2022/09/16 02:47:40;;;;;;;6.95;1.63;;;15.20;99.90;;;;;;5013352;28;20033;-48
2022/09/16 02:50:24;;;;;;;8.70;1.50;;;15.30;99.90;;;;;;5014567;28;20442;-47
2022/09/16 02:52:58;;;;;;;4.63;1.35;;;15.40;99.90;;;;;;5014458;28;20014;-50
2022/09/16 02:55:49;;;;;;;5.03;1.58;;;15.30;99.90;;;;;;5014520;28;20018;-47
2022/09/16 02:58:15;;;;;;;2.70;1.05;;;15.20;99.90;;;;;;5014499;28;20100;-46
2022/09/16 03:00:45;;;;;;;8.73;3.05;;;15.20;99.90;;;;;;5014627;28;20030;-47
2022/09/16 03:03:12;;;;;;;4.63;1.10;;;15.20;99.90;;;;;;4996638;28;20104;-48
2022/09/16 03:05:59;;;;;;;4.70;1.35;;;15.20;99.90;;;;;;5014348;28;20029;-48
2022/09/16 03:08:24;;;;;;;5.70;1.02;;;15.10;99.90;;;;;;5014394;28;20048;-45
2022/09/16 03:10:52;;;;;;;4.55;1.10;;;15.10;99.90;;;;;;5014314;28;20034;-47
2022/09/16 03:13:29;;;;;;;10.95;1.33;;;15.10;99.90;;;;;;5014001;28;20018;-48
2022/09/16 03:16:09;;;;;;;3.85;1.10;;;15.30;99.90;;;;;;5014146;28;20026;-46
2022/09/16 03:18:42;;;;;;;8.50;2.17;;;15.30;99.90;;;;;;5014002;28;20029;-48
2022/09/16 03:21:07;;;;;;;5.60;1.25;;;15.30;99.90;;;;;;5014098;28;20021;-46
2022/09/16 03:23:51;;;;;;;5.38;1.30;;;15.30;99.90;;;;;;5013775;28;20122;-46
2022/09/16 03:26:34;;;;;;;2.03;1.10;;;15.10;99.90;;;;;;5012789;28;20041;-45
2022/09/16 03:29:23;;;;;;;4.50;1.70;;;15.10;99.90;;;;;;5013845;28;20057;-46
2022/09/16 03:32:06;;;;;;;7.10;1.80;;;15.10;99.90;;;;;;5013856;28;20053;-49
2022/09/16 03:34:34;;;;;;;7.00;1.10;;;15.10;99.90;;;;;;5014042;28;20385;-47
2022/09/16 03:37:07;;;;;;;3.50;1.80;;;15.00;99.90;;;;;;5013218;28;20036;-46
2022/09/16 03:39:33;;;;;;;3.00;1.30;;;14.90;99.90;;;;;;5013760;28;20433;-48
2022/09/16 03:42:03;;;;;;;2.75;1.13;;;14.90;99.90;;;;;;5013438;28;20489;-46
2022/09/16 03:44:34;;;;;;;5.68;1.55;;;14.90;99.90;;;;;;5013725;28;20044;-45
2022/09/16 03:47:04;;;;;;;8.05;2.05;;;14.90;99.90;;;;;;5013534;28;20030;-46
2022/09/16 03:49:29;;;;;;;6.25;1.17;;;14.90;99.90;;;;;;4996464;28;20362;-45
2022/09/16 03:51:55;;;;;;;9.80;2.28;;;14.90;99.90;;;;;;5012346;28;20052;-48
2022/09/16 03:54:21;;;;;;;5.20;1.23;;;14.80;99.90;;;;;;5013680;28;20033;-46
2022/09/16 03:56:46;;;;;;;7.03;1.30;;;14.70;99.90;;;;;;5012102;28;20108;-46
2022/09/16 03:59:12;;;;;;;14.00;1.52;;;14.70;99.90;;;;;;5012370;28;20029;-46
2022/09/16 04:01:37;;;;;;;1.10;1.00;;;14.60;99.90;;;;;;5013901;28;20022;-49
2022/09/16 04:04:03;;;;;;;5.93;1.65;;;14.50;99.90;;;;;;5012831;28;20083;-49
2022/09/16 04:06:28;;;;;;;4.07;1.20;;;14.50;99.90;;;;;;5013090;28;20029;-45
2022/09/16 04:08:56;;;;;;;7.82;1.30;;;14.60;99.90;;;;;;5013333;28;20081;-47
2022/09/16 04:11:21;;;;;;;4.25;1.85;;;14.50;99.90;;;;;;5013194;28;20112;-46
2022/09/16 04:13:47;;;;;;;8.48;2.10;;;14.50;99.90;;;;;;4995450;28;20061;-46
2022/09/16 04:16:22;;;;;;;8.02;1.38;;;14.50;99.90;;;;;;5013145;28;20054;-47
2022/09/16 04:18:48;;;;;;;5.47;1.70;;;14.50;99.90;;;;;;5013043;28;20026;-46
2022/09/16 04:21:13;;;;;;;7.00;1.48;;;14.50;99.90;;;;;;5013227;28;20034;-46
2022/09/16 04:23:39;;;;;;;5.18;1.38;;;14.50;99.90;;;;;;5012804;28;20394;-46
2022/09/16 04:26:05;;;;;;;7.50;1.60;;;14.50;99.90;;;;;;5012911;28;20046;-47
2022/09/16 04:28:32;;;;;;;5.68;1.55;;;14.60;99.90;;;;;;5011531;28;20050;-50
2022/09/16 04:31:02;;;;;;;9.63;2.50;;;14.60;99.90;;;;;;5012901;28;20026;-45
2022/09/16 04:33:32;;;;;;;4.53;1.50;;;14.60;99.90;;;;;;5012501;28;20022;-45
2022/09/16 04:36:07;;;;;;;1.83;1.30;;;14.60;99.90;;;;;;5012786;28;20032;-45
2022/09/16 04:38:33;;;;;;;4.35;1.50;;;14.50;99.90;;;;;;5012422;28;20033;-46
2022/09/16 04:41:10;;;;;;;7.03;1.73;;;14.50;99.90;;;;;;5012660;28;20029;-46
2022/09/16 04:43:36;;;;;;;14.48;1.70;;;14.50;99.90;;;;;;5013641;28;20088;-46
2022/09/16 04:46:02;;;;;;;7.82;1.90;;;14.50;99.90;;;;;;5012849;28;20417;-45
2022/09/16 04:48:29;;;;;;;3.58;1.63;;;14.50;99.90;;;;;;5012525;28;20110;-46
2022/09/16 04:51:10;;;;;;;7.85;1.67;;;14.50;99.90;;;;;;5012469;28;20018;-48
2022/09/16 04:53:37;;;;;;;5.90;1.90;;;14.40;99.90;;;;;;5012216;28;20455;-47
2022/09/16 04:56:14;;;;;;;7.85;1.80;;;14.40;99.90;;;;;;4994917;28;20018;-47
2022/09/16 04:58:40;;;;;;;4.80;1.63;;;14.40;99.90;;;;;;4994700;28;20030;-47
2022/09/16 05:01:11;;;;;;;2.88;1.52;;;14.40;99.90;;;;;;5012325;28;20022;-47
2022/09/16 05:03:37;;;;;;;10.68;1.70;;;14.50;99.90;;;;;;5012049;28;20076;-45
2022/09/16 05:06:04;;;;;;;8.32;2.00;;;14.50;99.90;;;;;;5011969;28;20026;-45
2022/09/16 05:08:32;;;;;;;9.00;2.35;;;14.50;99.90;;;;;;5010899;28;20030;-45
2022/09/16 05:11:03;;;;;;;5.47;1.80;;;14.40;99.90;;;;;;5012081;28;20540;-45
2022/09/16 05:13:28;;;;;;;4.85;1.60;;;14.40;99.90;;;;;;5011873;28;20048;-48
2022/09/16 05:15:54;;;;;;;8.15;2.15;;;14.40;99.90;;;;;;5010772;28;20025;-47
2022/09/16 05:18:19;;;;;;;7.03;2.08;;;14.30;99.90;;;;;;5012001;28;20037;-50
2022/09/16 05:20:45;;;;;;;6.40;2.05;;;14.40;99.90;;;;;;5011894;28;20038;-47
2022/09/16 05:23:10;;;;;;;5.28;2.10;;;14.40;99.90;;;;;;5011986;28;20056;-46
2022/09/16 05:25:36;;;;;;;7.85;2.35;;;14.30;99.90;;;;;;5012320;28;20049;-49
2022/09/16 05:28:01;;;;;;;8.48;2.28;;;14.30;99.90;;;;;;5011953;28;20393;-47
2022/09/16 05:30:27;;;;;;;7.80;2.10;;;14.30;99.90;;;;;;5011874;28;20033;-46
2022/09/16 05:32:53;;;;;;;7.45;2.35;;;14.30;99.90;;;;;;5011540;28;20464;-46
2022/09/16 05:35:19;;;;;;;19.27;3.25;;;14.40;99.90;;;;;;5011621;28;20030;-50
2022/09/16 05:37:44;;;;;;;8.65;2.22;;;14.40;99.90;;;;;;4993883;28;20508;-46
2022/09/16 05:40:10;;;;;;;4.90;2.22;;;14.40;99.90;;;;;;5011740;28;20045;-45
2022/09/16 05:42:35;;;;;;;7.03;2.35;;;14.40;99.90;;;;;;5010430;28;20048;-46
2022/09/16 05:45:00;;;;;;;4.78;2.20;;;14.40;99.90;;;;;;5011706;28;20029;-47
2022/09/16 05:47:26;;;;;;;7.72;2.30;;;14.40;99.90;;;;;;5011508;28;20026;-46
2022/09/16 05:49:53;;;;;;;4.10;2.35;;;14.50;99.90;;;;;;5016989;28;20025;-46
2022/09/16 05:52:19;;;;;;;6.28;1.73;;;14.50;99.90;;;;;;5000234;28;20653;-47
2022/09/16 05:54:44;;;;;;;7.95;2.00;;;14.60;99.90;;;;;;5018182;28;20045;-51
2022/09/16 05:57:10;;;;;;;6.68;2.90;;;14.60;99.90;;;;;;5018111;28;20026;-48
2022/09/16 05:59:35;;;;;;;7.50;2.55;;;14.60;99.90;;;;;;5017899;28;20025;-47
2022/09/16 06:02:01;;;;;;;5.00;2.45;;;14.60;99.90;;;;;;5016374;28;20467;-47
2022/09/16 06:04:26;;;;;;;13.80;2.55;;;14.60;99.90;;;;;;5018249;28;20033;-49
2022/09/16 06:06:52;;;;;;;5.53;2.28;;;14.70;99.90;;;;;;5008865;28;20516;-50
2022/09/16 06:09:20;;;;;;;8.50;2.47;;;14.70;99.90;;;;;;4997340;28;20551;-49
2022/09/16 06:11:48;;;;;;;6.93;2.22;;;14.80;99.90;;;;;;4997540;28;20034;-46
2022/09/16 06:14:15;;;;;;;7.18;2.22;;;14.80;99.90;;;;;;4974758;28;20022;-44
2022/09/16 06:16:40;;;;;;;6.45;2.28;;;14.90;99.90;;;;;;4997669;28;20026;-45
2022/09/16 06:19:09;;;;;;;5.03;2.45;;;15.00;99.90;;;;;;4998021;28;20109;-46
2022/09/16 06:21:38;;;;;;;7.68;2.20;;;15.00;99.90;;;;;;4997461;28;20038;-48
2022/09/16 06:24:08;;;;;;;4.28;2.05;;;15.00;99.90;;;;;;4998029;28;20390;-46
2022/09/16 06:26:34;;;;;;;9.50;2.25;;;15.10;99.90;;;;;;4997578;28;20141;-46
2022/09/16 06:28:59;;;;;;;3.83;1.90;;;15.20;99.90;;;;;;4995988;28;20034;-50
2022/09/16 06:31:26;;;;;;;6.30;2.42;;;15.20;99.90;;;;;;4997423;28;20371;-48
2022/09/16 06:33:53;;;;;;;13.43;2.35;;;15.40;99.90;;;;;;4997451;28;20026;-48
2022/09/16 06:36:32;;;;;;;5.68;1.42;;;15.70;99.90;;;;;;4997186;28;20018;-48
2022/09/16 06:38:58;;;;;;;6.97;1.77;;;16.00;99.90;;;;;;4997959;28;20038;-46
2022/09/16 06:41:24;;;;;;;2.35;1.50;;;16.30;99.90;;;;;;4998156;28;20030;-47
2022/09/16 06:43:50;;;;;;;4.93;2.35;;;16.30;99.90;;;;;;4997722;28;20109;-48
2022/09/16 06:46:24;;;;;;;4.47;1.83;;;16.40;99.90;;;;;;4998103;28;20022;-46
2022/09/16 06:48:52;;;;;;;7.60;2.63;;;16.30;99.90;;;;;;4998126;28;20088;-47
2022/09/16 06:51:21;;;;;;;2.45;1.83;;;16.20;99.90;;;;;;4997897;28;20131;-46
2022/09/16 06:53:48;;;;;;;7.90;1.70;;;16.10;99.90;;;;;;4998047;28;20389;-49
2022/09/16 06:56:16;;;;;;;6.38;1.80;;;16.10;99.90;;;;;;4998120;28;20038;-45
2022/09/16 06:58:46;;;;;;;6.50;2.03;;;16.00;99.90;;;;;;4998087;28;20030;-47
2022/09/16 07:01:14;;;;;;;10.75;1.92;;;15.90;99.90;;;;;;4995500;28;20026;-46
2022/09/16 07:03:42;;;;;;;3.03;1.73;;;15.90;99.90;;;;;;4996899;28;20401;-45
2022/09/16 07:06:09;;;;;;;4.38;1.58;;;15.90;99.90;;;;;;4995714;28;20475;-45
2022/09/16 07:08:36;;;;;;;5.82;1.92;;;16.00;99.90;;;;;;4994719;28;20038;-45
2022/09/16 07:11:05;;;;;;;7.55;1.80;;;16.10;99.90;;;;;;4994674;28;20030;-46
2022/09/16 07:13:31;;;;;;;8.70;1.85;;;16.20;99.90;;;;;;4994562;28;20018;-46
2022/09/16 07:16:01;;;;;;;4.32;1.35;;;16.40;99.90;;;;;;4994691;28;20404;-46
2022/09/16 07:18:29;;;;;;;4.75;1.10;;;16.60;99.90;;;;;;4995165;28;20284;-45
2022/09/16 07:21:01;;;;;;;5.15;1.30;;;16.70;99.90;;;;;;4994731;28;20505;-45
2022/09/16 07:23:29;;;;;;;11.60;2.55;;;16.70;99.90;;;;;;4994398;28;20053;-46
2022/09/16 07:26:13;;;;;;;3.45;1.42;;;16.70;99.90;;;;;;4994441;28;20417;-45
2022/09/16 07:28:40;;;;;;;4.35;1.55;;;16.70;99.90;;;;;;4994452;28;20049;-46
2022/09/16 07:31:10;;;;;;;8.05;1.30;;;17.00;99.90;;;;;;4994798;28;20023;-48
2022/09/16 07:33:39;;;;;;;3.08;0.90;;;17.20;99.90;;;;;;4994350;28;20494;-45
2022/09/16 07:36:06;;;;;;;6.07;1.38;;;17.30;99.90;;;;;;4993005;28;20022;-46
2022/09/16 07:38:32;;;;;;;9.80;2.15;;;17.30;99.90;;;;;;4994893;28;20054;-46
2022/09/16 07:41:28;;;;;;;3.53;1.45;;;17.20;99.90;;;;;;4995463;28;20053;-45
2022/09/16 07:43:57;;;;;;;8.98;1.30;;;17.00;99.90;;;;;;4992651;28;20422;-45
2022/09/16 07:46:24;;;;;;;8.93;1.67;;;16.90;99.90;;;;;;4994268;28;20092;-48
2022/09/16 07:48:50;;;;;;;16.50;1.65;;;16.80;99.90;;;;;;4994431;28;20030;-46
2022/09/16 07:51:21;;;;;;;4.03;1.27;;;16.60;99.90;;;;;;4992321;28;20514;-47
2022/09/16 07:53:48;;;;;;;5.68;1.48;;;16.40;99.90;;;;;;4992905;28;20067;-49
2022/09/16 07:56:18;;;;;;;8.55;1.60;;;16.40;99.90;;;;;;4992981;28;20053;-47
2022/09/16 07:58:45;;;;;;;4.75;1.30;;;16.50;99.90;;;;;;4992567;28;20030;-44
2022/09/16 08:01:12;;;;;;;13.98;1.50;;;16.50;99.90;;;;;;4993471;28;20117;-45
2022/09/16 08:03:38;;;;;;;2.15;1.02;;;16.60;99.90;;;;;;4993139;28;20489;-48
2022/09/16 08:06:13;;;;;;;9.15;1.48;;;16.60;99.90;;;;;;4993438;28;20405;-46
2022/09/16 08:08:39;;;;;;;3.05;1.02;;;16.70;99.90;;;;;;4993778;28;20097;-46
2022/09/16 08:11:05;;;;;;;9.73;1.35;;;16.60;99.90;;;;;;4993670;28;20172;-49
2022/09/16 08:13:32;;;;;;;16.73;2.17;;;16.70;99.90;;;;;;4993346;28;20375;-46
2022/09/16 08:16:13;;;;;;;10.55;1.95;;;16.80;99.90;;;;;;4992595;28;20600;-48
2022/09/16 08:18:40;;;;;;;7.05;1.30;;;16.80;99.90;;;;;;5006726;28;20542;-46
2022/09/16 08:21:14;;;;;;;6.65;1.50;;;16.80;99.90;;;;;;4993361;28;20030;-48
2022/09/16 08:23:40;;;;;;;3.63;1.27;;;16.60;99.90;;;;;;4992982;28;20506;-46
2022/09/16 08:26:08;;;;;;;5.47;1.48;;;16.60;99.90;;;;;;4992805;28;20046;-49
2022/09/16 08:28:34;;;;;;;4.63;1.33;;;16.60;99.90;;;;;;4982969;28;20037;-46
2022/09/16 08:31:00;;;;;;;7.40;1.25;;;16.70;99.90;;;;;;4993061;28;20026;-46
2022/09/16 08:33:26;;;;;;;3.47;1.30;;;16.70;99.90;;;;;;4993072;28;20110;-45
2022/09/16 08:36:04;;;;;;;3.75;1.25;;;16.70;99.90;;;;;;4992539;28;20109;-46
2022/09/16 08:38:30;;;;;;;5.43;1.30;;;16.90;99.90;;;;;;4992927;28;20031;-48
2022/09/16 08:41:05;;;;;;;3.35;0.98;;;17.00;99.90;;;;;;4993385;28;20034;-46
2022/09/16 08:43:42;;;;;;;5.07;1.42;;;17.20;99.90;;;;;;4992723;28;20030;-46
2022/09/16 08:46:16;;;;;;;6.22;1.70;;;17.60;99.90;;;;;;4992899;28;20442;-46
2022/09/16 08:48:57;;;;;;;10.50;1.13;;;18.00;99.90;;;;;;4991383;28;20089;-44
2022/09/16 08:51:23;;;;;;;4.20;1.05;;;18.00;99.40;;;;;;4992929;28;20089;-44
2022/09/16 08:53:59;;;;;;;2.70;1.02;;;18.20;99.00;;;;;;4993128;28;20050;-46
2022/09/16 08:56:28;;;;;;;5.25;1.50;;;19.40;97.30;;;;;;4992857;28;20030;-46
2022/09/16 08:59:00;;;;;;;11.27;1.30;;;20.90;95.40;;;;;;4978541;28;20022;-45
2022/09/16 09:01:34;;;;;;;3.47;1.20;;;22.30;92.40;;;;;;5009834;28;20042;-45
2022/09/16 09:04:01;;;;;;;2.53;1.13;;;23.90;90.30;;;;;;4994393;28;20080;-44
2022/09/16 09:06:45;;;;;;;3.75;0.90;;;24.70;88.80;;;;;;5011235;28;20032;-48
2022/09/16 09:09:43;;;;;;;6.57;1.27;;;25.60;84.20;;;;;;4971347;28;20529;-48
2022/09/16 09:12:19;;;;;;;2.40;0.80;;;25.60;81.90;;;;;;4972367;28;20034;-49
2022/09/16 09:15:10;;;;;;;1.70;0.80;;;25.60;82.20;;;;;;4991533;28;20026;-49
2022/09/16 09:18:02;;;;;;;3.55;0.70;;;26.10;79.60;;;;;;4992230;28;20031;-47
2022/09/16 09:20:54;;;;;;;2.90;0.70;;;25.70;77.80;;;;;;4981472;28;20038;-47
2022/09/16 09:23:38;;;;;;;2.58;0.93;;;25.50;77.70;;;;;;4990900;28;20054;-50
2022/09/16 09:26:34;;;;;;;4.72;1.25;;;25.00;77.60;;;;;;4992255;28;20084;-47
2022/09/16 09:29:16;;;;;;;2.25;0.80;;;24.70;79.40;;;;;;4988118;28;20097;-48
2022/09/16 09:31:51;;;;;;;3.83;1.15;;;24.20;81.40;;;;;;4974763;28;20022;-46
2022/09/16 09:34:57;;;;;;;3.05;1.23;;;23.60;81.80;;;;;;4992262;28;20030;-46
2022/09/16 09:37:44;;;;;;;2.63;1.13;;;23.50;83.70;;;;;;4992387;28;20035;-45
2022/09/16 09:40:29;;;;;;;6.70;1.85;;;23.00;83.70;;;;;;4992155;28;20086;-46
2022/09/16 09:43:11;;;;;;;2.10;0.90;;;22.00;86.50;;;;;;4991524;28;20027;-49
2022/09/16 09:45:43;;;;;;;4.65;1.08;;;21.60;86.90;;;;;;4992122;28;20014;-45
2022/09/16 09:48:17;;;;;;;1.92;1.17;;;21.40;88.10;;;;;;4990669;28;20058;-47
2022/09/16 09:50:46;;;;;;;5.97;1.15;;;21.40;89.70;;;;;;4992042;28;20440;-47
2022/09/16 09:53:27;;;;;;;5.47;1.13;;;21.20;88.60;;;;;;4991788;28;20474;-46
2022/09/16 09:56:15;;;;;;;7.50;2.22;;;21.10;90.20;;;;;;4991970;28;20098;-47
2022/09/16 09:59:20;;;;;;;3.83;1.00;;;20.70;90.60;;;;;;5006696;28;20026;-49
2022/09/16 10:01:51;;;;;;;2.80;0.98;;;20.30;90.80;;;;;;4987772;28;20034;-49
2022/09/16 10:04:17;;;;;;;5.60;0.82;;;19.90;91.20;;;;;;4991911;28;20100;-49
2022/09/16 10:06:44;;;;;;;4.20;1.08;;;19.60;91.70;;;;;;4992094;28;20034;-49
2022/09/16 10:09:13;;;;;;;3.65;0.70;;;19.30;92.80;;;;;;4983319;28;20030;-49
2022/09/16 10:11:48;;;;;;;4.47;1.05;;;19.20;93.50;;;;;;4990410;28;20085;-47
2022/09/16 10:14:22;;;;;;;5.90;1.67;;;19.00;93.70;;;;;;4990784;28;20046;-49
2022/09/16 10:16:51;;;;;;;11.57;6.05;;;19.30;93.60;;;;;;4992137;28;20098;-45
2022/09/16 10:19:23;;;;;;;25.80;14.27;;;19.50;92.50;;;;;;4991935;28;20023;-48
2022/09/16 10:22:13;;;;;;;6.13;1.30;;;19.80;92.10;;;;;;4991891;28;20031;-48
2022/09/16 10:24:41;;;;;;;4.40;0.90;;;20.00;92.00;;;;;;4980647;28;20039;-50
2022/09/16 10:27:27;;;;;;;5.28;0.98;;;19.70;91.90;;;;;;4991877;28;20278;-48
2022/09/16 10:30:14;;;;;;;5.90;1.42;;;19.50;92.70;;;;;;4990510;28;20375;-46
2022/09/16 10:32:48;;;;;;;3.85;0.90;;;19.10;92.70;;;;;;4991685;28;20150;-47
2022/09/16 10:35:19;;;;;;;5.32;1.13;;;18.80;92.90;;;;;;4993172;28;20023;-48
2022/09/16 10:37:50;;;;;;;2.95;0.98;;;18.50;93.60;;;;;;4995624;28;20116;-48
2022/09/16 10:40:17;;;;;;;3.33;1.10;;;18.30;94.40;;;;;;4993509;28;20033;-46
2022/09/16 10:42:46;;;;;;;2.97;1.05;;;18.10;95.00;;;;;;4995918;28;20041;-46
2022/09/16 10:45:25;;;;;;;6.30;1.88;;;18.00;95.20;;;;;;4993994;28;20026;-48
2022/09/16 10:47:54;;;;;;;8.65;0.90;;;18.00;95.60;;;;;;4995371;28;20029;-45
2022/09/16 10:50:20;;;;;;;4.18;3.78;;;18.00;95.90;;;;;;4994979;28;20112;-47
2022/09/16 10:52:47;;;;;;;8.20;1.42;;;18.00;96.10;;;;;;4994667;28;20054;-50
2022/09/16 10:55:18;;;;;;;5.00;3.60;;;18.20;95.70;;;;;;4995415;28;20037;-47
2022/09/16 10:57:45;;;;;;;19.60;1.58;;;18.20;95.60;;;;;;4996923;28;20027;-48
2022/09/16 11:00:19;;;;;;;2.78;0.98;;;18.20;95.00;;;;;;4994931;28;20026;-52
2022/09/16 11:03:05;;;;;;;2.50;0.93;;;18.30;95.00;;;;;;4994866;28;20042;-45
2022/09/16 11:05:43;;;;;;;9.57;1.27;;;18.30;95.60;;;;;;4995051;28;20394;-45
2022/09/16 11:08:40;;;;;;;3.70;1.02;;;18.20;95.10;;;;;;4994704;28;20072;-45
2022/09/16 11:11:15;;;;;;;6.72;1.52;;;18.30;95.60;;;;;;4994529;28;20398;-48
2022/09/16 11:13:49;;;;;;;2.83;0.70;;;18.20;96.10;;;;;;4994068;28;20029;-48
2022/09/16 11:16:21;;;;;;;3.55;1.00;;;18.10;96.40;;;;;;4994297;28;20343;-49
2022/09/16 11:19:10;;;;;;;4.90;1.10;;;18.20;96.70;;;;;;4994528;28;20026;-46
2022/09/16 11:21:58;;;;;;;3.75;1.98;;;18.20;96.10;;;;;;4994393;28;20027;-46
2022/09/16 11:24:40;;;;;;;2.53;0.95;;;18.30;96.20;;;;;;4992428;28;20054;-44
2022/09/16 11:27:14;;;;;;;8.25;1.48;;;18.30;97.20;;;;;;4994176;28;20093;-48
2022/09/16 11:30:07;;;;;;;3.25;1.00;;;18.50;97.00;;;;;;4994199;28;20383;-46
2022/09/16 11:32:34;;;;;;;4.00;1.38;;;18.60;96.60;;;;;;4994016;28;20041;-48
2022/09/16 11:35:23;;;;;;;5.55;1.77;;;18.70;95.80;;;;;;4992428;28;20508;-44
2022/09/16 11:38:03;;;;;;;3.10;1.02;;;18.60;95.60;;;;;;4994244;28;20030;-46
2022/09/16 11:40:48;;;;;;;5.05;0.75;;;18.50;95.80;;;;;;4993903;28;20034;-44
2022/09/16 11:43:39;;;;;;;5.32;1.00;;;18.40;95.90;;;;;;4991835;28;20219;-45
2022/09/16 11:46:17;;;;;;;3.03;0.93;;;18.30;96.40;;;;;;4991979;28;20038;-46
2022/09/16 11:48:55;;;;;;;1.80;0.80;;;18.50;96.60;;;;;;4993794;28;20022;-47
2022/09/16 11:51:43;;;;;;;2.40;0.70;;;18.60;95.60;;;;;;4993660;28;20560;-47
2022/09/16 11:54:27;;;;;;;3.80;1.00;;;18.60;95.40;;;;;;4973091;28;20026;-46
2022/09/16 11:56:56;;;;;;;2.38;0.70;;;18.60;95.50;;;;;;4983881;28;20037;-47
2022/09/16 11:59:29;;;;;;;3.97;0.73;;;18.60;95.60;;;;;;4993662;28;20022;-46
2022/09/16 12:02:14;;;;;;;4.32;0.77;;;18.40;96.00;;;;;;4993693;28;20105;-45
2022/09/16 12:04:58;;;;;;;4.18;0.75;;;18.20;96.20;;;;;;4992635;28;20061;-47
2022/09/16 12:07:40;;;;;;;56.37;3.90;;;18.20;96.30;;;;;;4992486;28;20414;-46
2022/09/16 12:10:15;;;;;;;3.38;0.75;;;18.10;96.60;;;;;;4993759;28;20077;-44
2022/09/16 12:12:47;;;;;;;4.55;1.00;;;18.10;97.00;;;;;;4993041;28;20076;-46
2022/09/16 12:15:18;;;;;;;2.45;0.73;;;18.20;97.30;;;;;;4994006;28;20379;-47
2022/09/16 12:17:52;;;;;;;1.95;0.70;;;18.10;97.70;;;;;;4992573;28;20027;-50
2022/09/16 12:20:35;;;;;;;2.97;1.10;;;18.00;98.10;;;;;;4992540;28;20041;-46
2022/09/16 12:23:12;;;;;;;2.13;1.45;;;17.80;99.90;;;;;;4993111;28;20134;-47
2022/09/16 12:25:44;;;;;;;1.30;0.82;;;17.50;99.90;;;;;;4992197;28;20113;-46
2022/09/16 12:28:32;;;;;;;2.63;0.75;;;17.30;99.90;;;;;;4991162;28;20034;-47
2022/09/16 12:31:14;;;;;;;1.48;0.80;;;17.20;99.90;;;;;;4992879;28;20030;-49
2022/09/16 12:33:48;;;;;;;2.35;0.82;;;17.00;99.90;;;;;;4992487;28;20034;-47
2022/09/16 12:36:19;;;;;;;1.60;0.60;;;16.90;99.90;;;;;;4992431;28;20026;-47
2022/09/16 12:38:44;;;;;;;1.42;0.60;;;17.00;99.90;;;;;;4992639;28;20517;-45
2022/09/16 12:41:37;;;;;;;2.63;0.65;;;17.00;99.90;;;;;;4993026;28;20062;-48
2022/09/16 12:44:21;;;;;;;1.27;0.50;;;17.00;99.90;;;;;;4992793;28;20028;-44
2022/09/16 12:46:51;;;;;;;2.30;0.50;;;17.10;99.90;;;;;;4993199;28;20027;-44
2022/09/16 12:49:38;;;;;;;3.60;0.50;;;17.20;99.90;;;;;;4992818;28;20026;-46
2022/09/16 12:52:38;;;;;;;1.70;0.47;;;17.20;99.90;;;;;;4993115;28;20437;-46
2022/09/16 12:55:42;;;;;;;0.35;0.35;;;17.20;99.90;;;;;;4993317;28;20015;-45
2022/09/16 12:58:44;;;;;;;2.38;1.30;;;17.10;99.90;;;;;;4992888;28;20026;-51
2022/09/16 13:01:49;;;;;;;1.02;0.60;;;17.00;99.90;;;;;;4992862;28;20023;-48
2022/09/16 13:04:19;;;;;;;0.40;0.40;;;16.90;99.90;;;;;;4894652;29;20040;-49
2022/09/16 13:06:49;;;;;;;4.38;3.35;;;16.80;99.90;;;;;;4894840;29;20033;-47
2022/09/16 13:09:20;;;;;;;1.80;0.95;;;16.80;99.90;;;;;;4946672;28;20121;-46
2022/09/16 13:11:59;;;;;;;1.38;0.70;;;16.90;99.90;;;;;;4992623;28;20121;-44
2022/09/16 13:14:44;;;;;;;2.83;0.60;;;16.90;99.90;;;;;;4992332;28;20031;-45
2022/09/16 13:17:11;;;;;;;0.80;0.47;;;16.90;99.90;;;;;;4992693;28;20502;-46